createdAt,value
2023-04-21T00:01:26.101Z,39.67
2023-04-21T00:03:52.689Z,37.45
2023-04-21T00:06:22.687Z,44.75
2023-04-21T00:08:50.161Z,42.42
2023-04-21T00:11:16.586Z,42.95
2023-04-21T00:13:43.061Z,41.08
2023-04-21T00:16:09.577Z,41.03
2023-04-21T00:18:36.029Z,40.85
2023-04-21T00:21:02.555Z,45.25
2023-04-21T00:23:28.998Z,41.92
2023-04-21T00:25:55.466Z,50.10
2023-04-21T00:28:21.911Z,43.03
2023-04-21T00:30:48.282Z,39.47
2023-04-21T00:33:14.653Z,44.05
2023-04-21T00:35:41.022Z,41.65
2023-04-21T00:38:07.389Z,43.08
2023-04-21T00:40:33.957Z,48.42
2023-04-21T00:43:00.431Z,45.10
2023-04-21T00:45:26.826Z,51.35
2023-04-21T00:47:53.274Z,45.30
2023-04-21T00:50:19.693Z,46.38
2023-04-21T00:52:47.035Z,42.22
2023-04-21T00:55:14.303Z,45.20
2023-04-21T00:57:40.737Z,40.15
2023-04-21T01:00:08.898Z,41.83
2023-04-21T01:02:35.782Z,45.70
2023-04-21T01:05:05.397Z,49.55
2023-04-21T01:07:31.892Z,47.55
2023-04-21T01:09:59.679Z,47.78
2023-04-21T01:12:26.044Z,46.85
2023-04-21T01:14:52.491Z,49.13
2023-04-21T01:17:19.074Z,45.63
2023-04-21T01:19:45.941Z,47.47
2023-04-21T01:22:12.974Z,46.70
2023-04-21T01:24:42.904Z,46.25
2023-04-21T01:27:11.198Z,50.08
2023-04-21T01:29:38.738Z,47.90
2023-04-21T01:32:11.816Z,43.00
2023-04-21T01:34:39.697Z,54.05
2023-04-21T01:37:14.175Z,47.42
2023-04-21T01:39:42.164Z,49.72
2023-04-21T01:42:09.079Z,47.55
2023-04-21T01:44:35.928Z,51.67
2023-04-21T01:47:02.393Z,51.05
2023-04-21T01:49:28.766Z,47.08
2023-04-21T01:51:55.177Z,51.67
2023-04-21T01:54:21.583Z,56.22
2023-04-21T01:56:47.966Z,53.25
2023-04-21T01:59:14.385Z,59.22
2023-04-21T02:01:40.908Z,54.28
2023-04-21T02:04:07.738Z,55.78
2023-04-21T02:06:34.309Z,48.20
2023-04-21T02:09:00.678Z,54.20
2023-04-21T02:11:27.042Z,58.47
2023-04-21T02:13:54.150Z,54.10
2023-04-21T02:16:20.703Z,50.28
2023-04-21T02:18:48.291Z,54.22
2023-04-21T02:21:15.451Z,60.72
2023-04-21T02:23:41.849Z,56.00
2023-04-21T02:26:08.277Z,61.53
2023-04-21T02:28:34.737Z,70.47
2023-04-21T02:31:01.105Z,62.47
2023-04-21T02:33:27.532Z,61.85
2023-04-21T02:35:53.982Z,61.22
2023-04-21T02:38:20.410Z,65.00
2023-04-21T02:40:46.771Z,66.07
2023-04-21T02:43:16.784Z,62.55
2023-04-21T02:45:43.162Z,61.13
2023-04-21T02:48:09.791Z,63.78
2023-04-21T02:50:36.511Z,66.03
2023-04-21T02:53:02.866Z,67.70
2023-04-21T02:55:29.660Z,64.22
2023-04-21T02:57:56.364Z,68.80
2023-04-21T03:00:22.853Z,65.57
2023-04-21T03:02:49.417Z,67.18
2023-04-21T03:05:16.005Z,62.38
2023-04-21T03:07:42.382Z,61.55
2023-04-21T03:10:08.814Z,67.60
2023-04-21T03:12:35.382Z,69.15
2023-04-21T03:15:01.762Z,68.93
2023-04-21T03:17:29.394Z,63.72
2023-04-21T03:19:57.287Z,64.55
2023-04-21T03:22:23.655Z,64.97
2023-04-21T03:24:50.032Z,64.80
2023-04-21T03:27:16.412Z,69.13
2023-04-21T03:29:42.782Z,62.47
2023-04-21T03:32:09.201Z,65.75
2023-04-21T03:34:35.771Z,67.40
2023-04-21T03:37:02.143Z,66.32
2023-04-21T03:39:28.526Z,67.05
2023-04-21T03:41:54.893Z,70.85
2023-04-21T03:44:21.300Z,72.90
2023-04-21T03:46:47.664Z,72.38
2023-04-21T03:49:14.045Z,71.32
2023-04-21T03:51:40.420Z,69.30
2023-04-21T03:54:06.999Z,70.05
2023-04-21T03:56:33.362Z,62.42
2023-04-21T03:58:59.743Z,61.47
2023-04-21T04:01:26.612Z,68.25
2023-04-21T04:03:53.242Z,63.13
2023-04-21T04:06:19.746Z,67.25
2023-04-21T04:08:46.429Z,70.25
2023-04-21T04:11:12.796Z,60.40
2023-04-21T04:13:39.188Z,64.32
2023-04-21T04:16:05.972Z,55.88
2023-04-21T04:18:32.379Z,63.05
2023-04-21T04:20:58.741Z,65.22
2023-04-21T04:23:26.027Z,65.60
2023-04-21T04:25:52.394Z,65.45
2023-04-21T04:28:18.779Z,64.22
2023-04-21T04:30:45.359Z,69.50
2023-04-21T04:33:11.868Z,60.08
2023-04-21T04:35:38.599Z,66.80
2023-04-21T04:38:04.970Z,68.35
2023-04-21T04:40:33.161Z,73.07
2023-04-21T04:43:01.250Z,68.28
2023-04-21T04:45:28.475Z,71.65
2023-04-21T04:47:54.916Z,81.28
2023-04-21T04:50:21.370Z,79.57
2023-04-21T04:52:48.989Z,73.80
2023-04-21T04:55:15.482Z,77.55
2023-04-21T04:57:41.917Z,72.32
2023-04-21T05:00:11.184Z,67.97
2023-04-21T05:02:38.495Z,77.47
2023-04-21T05:05:07.074Z,76.28
2023-04-21T05:07:36.954Z,70.25
2023-04-21T05:10:04.470Z,67.38
2023-04-21T05:12:32.238Z,74.03
2023-04-21T05:14:58.690Z,66.88
2023-04-21T05:17:25.523Z,81.30
2023-04-21T05:19:51.937Z,74.60
2023-04-21T05:22:18.289Z,71.43
2023-04-21T05:24:44.729Z,74.05
2023-04-21T05:27:11.086Z,77.47
2023-04-21T05:29:37.502Z,76.78
2023-04-21T05:32:03.982Z,75.40
2023-04-21T05:34:30.487Z,74.15
2023-04-21T05:36:56.916Z,74.80
2023-04-21T05:39:23.362Z,73.38
2023-04-21T05:41:49.740Z,70.38
2023-04-21T05:44:18.174Z,77.10
2023-04-21T05:46:44.771Z,69.05
2023-04-21T05:49:11.433Z,74.28
2023-04-21T05:51:37.804Z,71.88
2023-04-21T05:54:04.176Z,71.70
2023-04-21T05:56:30.557Z,71.60
2023-04-21T05:58:56.923Z,75.15
2023-04-21T06:01:23.285Z,74.88
2023-04-21T06:03:50.350Z,67.15
2023-04-21T06:06:17.514Z,75.90
2023-04-21T06:08:43.994Z,74.07
2023-04-21T06:11:10.367Z,77.43
2023-04-21T06:13:38.594Z,75.63
2023-04-21T06:16:05.989Z,79.70
2023-04-21T06:18:32.422Z,74.75
2023-04-21T06:20:58.786Z,74.80
2023-04-21T06:23:25.353Z,71.18
2023-04-21T06:26:06.647Z,75.07
2023-04-21T06:31:01.560Z,69.28
2023-04-21T06:33:28.184Z,72.03
2023-04-21T06:35:54.625Z,69.10
2023-04-21T06:38:21.363Z,70.47
2023-04-21T06:40:47.908Z,72.00
2023-04-21T06:43:14.403Z,62.38
2023-04-21T06:45:40.802Z,66.65
2023-04-21T06:48:07.290Z,66.85
2023-04-21T06:50:33.746Z,65.68
2023-04-21T06:53:00.213Z,66.45
2023-04-21T06:55:26.592Z,65.40
2023-04-21T06:57:52.991Z,61.33
2023-04-21T07:00:19.474Z,68.70
2023-04-21T07:02:45.952Z,68.38
2023-04-21T07:05:12.572Z,61.30
2023-04-21T07:07:38.945Z,63.45
2023-04-21T07:10:05.756Z,60.55
2023-04-21T07:12:32.122Z,57.60
2023-04-21T07:14:58.493Z,57.03
2023-04-21T07:17:24.933Z,64.78
2023-04-21T07:19:51.326Z,59.80
2023-04-21T07:22:17.690Z,60.10
2023-04-21T07:24:44.107Z,60.20
2023-04-21T07:27:10.654Z,55.65
2023-04-21T07:29:37.422Z,61.22
2023-04-21T07:32:03.834Z,55.58
2023-04-21T07:34:30.211Z,59.47
2023-04-21T07:36:56.742Z,61.88
2023-04-21T07:39:23.119Z,59.30
2023-04-21T07:41:49.578Z,56.08
2023-04-21T07:44:15.960Z,56.88
2023-04-21T07:46:42.379Z,54.97
2023-04-21T07:49:08.839Z,57.33
2023-04-21T07:51:35.252Z,60.45
2023-04-21T07:54:01.870Z,57.55
2023-04-21T07:56:28.274Z,58.72
2023-04-21T07:58:54.972Z,53.15
2023-04-21T08:01:22.321Z,57.90
2023-04-21T08:03:48.976Z,57.95
2023-04-21T08:06:15.844Z,57.15
2023-04-21T08:08:42.604Z,62.45
2023-04-21T08:11:10.801Z,58.33
2023-04-21T08:13:37.523Z,55.53
2023-04-21T08:16:04.030Z,51.17
2023-04-21T08:18:31.139Z,50.38
2023-04-21T08:20:57.952Z,57.83
2023-04-21T08:23:24.566Z,54.67
2023-04-21T08:25:51.044Z,57.22
2023-04-21T08:28:17.482Z,52.38
2023-04-21T08:30:43.877Z,49.00
2023-04-21T08:33:13.585Z,47.83
2023-04-21T08:35:47.963Z,51.38
2023-04-21T08:38:21.724Z,48.20
2023-04-21T08:40:49.552Z,48.30
2023-04-21T08:43:16.015Z,46.70
2023-04-21T08:45:43.571Z,46.72
2023-04-21T08:48:16.278Z,43.75
2023-04-21T08:50:43.068Z,51.05
2023-04-21T08:53:09.753Z,41.70
2023-04-21T08:55:36.303Z,51.92
2023-04-21T08:58:06.880Z,50.38
2023-04-21T09:00:33.278Z,49.95
2023-04-21T09:03:02.112Z,44.85
2023-04-21T09:05:31.013Z,47.90
2023-04-21T09:08:11.645Z,48.38
2023-04-21T09:10:52.457Z,51.50
2023-04-21T09:13:20.259Z,44.65
2023-04-21T09:15:49.596Z,57.30
2023-04-21T09:18:18.204Z,58.38
2023-04-21T09:20:45.978Z,54.00
2023-04-21T09:23:12.453Z,43.95
2023-04-21T09:25:40.688Z,72.65
2023-04-21T09:28:11.429Z,54.05
2023-04-21T09:30:39.266Z,58.65
2023-04-21T09:33:13.382Z,80.78
2023-04-21T09:35:47.931Z,49.55
2023-04-21T09:38:15.472Z,41.05
2023-04-21T09:40:41.841Z,42.08
2023-04-21T09:43:09.350Z,45.60
2023-04-21T09:45:40.097Z,43.72
2023-04-21T09:48:09.575Z,58.85
2023-04-21T09:51:11.465Z,49.88
2023-04-21T09:53:24.892Z,48.55
2023-04-21T09:55:51.693Z,102.47
2023-04-21T09:58:20.665Z,46.60
2023-04-21T10:00:47.394Z,41.38
2023-04-21T10:03:14.535Z,38.17
2023-04-21T10:05:42.999Z,41.20
2023-04-21T10:08:11.516Z,42.75
2023-04-21T10:10:38.730Z,41.58
2023-04-21T10:13:05.199Z,39.90
2023-04-21T10:15:35.954Z,40.92
2023-04-21T10:18:25.164Z,44.20
2023-04-21T10:20:58.565Z,40.03
2023-04-21T10:23:52.046Z,41.22
2023-04-21T10:26:34.317Z,38.38
2023-04-21T10:31:36.940Z,39.60
2023-04-21T10:34:09.260Z,36.25
2023-04-21T10:36:42.289Z,35.88
2023-04-21T10:39:08.971Z,38.30
2023-04-21T10:41:35.926Z,37.55
2023-04-21T10:44:14.272Z,35.90
2023-04-21T10:46:46.128Z,35.65
2023-04-21T10:49:30.068Z,31.90
2023-04-21T10:51:59.580Z,34.35
2023-04-21T10:54:26.652Z,34.65
2023-04-21T10:56:54.173Z,34.10
2023-04-21T10:59:20.614Z,35.88
2023-04-21T11:01:47.274Z,33.42
2023-04-21T11:04:18.115Z,30.13
2023-04-21T11:07:07.964Z,31.67
2023-04-21T11:09:35.890Z,29.83
2023-04-21T11:12:04.478Z,29.77
2023-04-21T11:14:31.122Z,32.15
2023-04-21T11:16:57.627Z,32.20
2023-04-21T11:19:25.769Z,28.17
2023-04-21T11:21:55.240Z,31.38
2023-04-21T11:24:21.941Z,30.20
2023-04-21T11:26:48.444Z,32.38
2023-04-21T11:29:15.193Z,28.80
2023-04-21T11:31:44.165Z,30.98
2023-04-21T11:34:10.711Z,32.15
2023-04-21T11:36:39.984Z,30.15
2023-04-21T11:39:10.376Z,31.33
2023-04-21T11:41:39.823Z,30.88
2023-04-21T11:44:06.238Z,29.40
2023-04-21T11:46:39.973Z,30.17
2023-04-21T11:49:07.715Z,28.48
2023-04-21T11:51:41.686Z,29.90
2023-04-21T11:54:10.384Z,33.83
2023-04-21T11:56:41.804Z,30.27
2023-04-21T11:59:12.081Z,26.67
2023-04-21T12:01:49.187Z,26.98
2023-04-21T12:04:17.544Z,27.73
2023-04-21T12:06:54.817Z,29.15
2023-04-21T12:09:21.431Z,28.60
2023-04-21T12:11:52.058Z,29.98
2023-04-21T12:14:20.674Z,27.40
2023-04-21T12:16:54.868Z,30.95
2023-04-21T12:19:41.258Z,27.42
2023-04-21T12:22:12.086Z,26.42
2023-04-21T12:24:38.690Z,28.05
2023-04-21T12:27:05.696Z,29.67
2023-04-21T12:29:33.889Z,28.50
2023-04-21T12:32:00.500Z,26.95
2023-04-21T12:34:27.007Z,29.90
2023-04-21T12:36:53.401Z,31.25
2023-04-21T12:39:20.397Z,28.17
2023-04-21T12:41:49.731Z,26.60
2023-04-21T12:44:16.268Z,27.13
2023-04-21T12:46:42.756Z,28.63
2023-04-21T12:49:10.019Z,25.38
2023-04-21T12:51:36.658Z,26.40
2023-04-21T12:54:03.361Z,24.85
2023-04-21T12:56:30.002Z,22.23
2023-04-21T12:58:56.410Z,24.33
2023-04-21T13:01:22.859Z,26.55
2023-04-21T13:03:49.446Z,25.15
2023-04-21T13:06:15.981Z,22.63
2023-04-21T13:08:42.376Z,25.77
2023-04-21T13:11:08.736Z,24.52
2023-04-21T13:13:35.215Z,27.52
2023-04-21T13:16:01.613Z,24.08
2023-04-21T13:18:27.989Z,25.42
2023-04-21T13:20:54.364Z,24.77
2023-04-21T13:23:20.774Z,25.67
2023-04-21T13:25:47.184Z,23.00
2023-04-21T13:28:14.302Z,23.92
2023-04-21T13:30:40.777Z,21.77
2023-04-21T13:33:07.201Z,24.08
2023-04-21T13:35:33.588Z,22.77
2023-04-21T13:38:00.077Z,26.58
2023-04-21T13:40:26.537Z,22.38
2023-04-21T13:42:52.936Z,22.88
2023-04-21T13:45:19.321Z,23.40
2023-04-21T13:47:46.384Z,23.48
2023-04-21T13:50:12.833Z,27.17
2023-04-21T13:52:39.236Z,23.13
2023-04-21T13:55:05.999Z,21.98
2023-04-21T13:57:32.499Z,24.83
2023-04-21T13:59:58.935Z,23.13
2023-04-21T14:02:25.908Z,21.67
2023-04-21T14:04:53.388Z,22.45
2023-04-21T14:07:20.393Z,24.10
2023-04-21T14:09:46.807Z,23.38
2023-04-21T14:12:13.270Z,22.65
2023-04-21T14:14:39.717Z,23.70
2023-04-21T14:17:07.185Z,24.73
2023-04-21T14:19:34.722Z,21.13
2023-04-21T14:22:01.502Z,26.27
2023-04-21T14:24:29.912Z,23.65
2023-04-21T14:26:57.428Z,24.58
2023-04-21T14:29:23.841Z,25.15
2023-04-21T14:31:50.544Z,23.42
2023-04-21T14:34:17.054Z,22.65
2023-04-21T14:36:43.483Z,23.00
2023-04-21T14:39:10.247Z,23.98
2023-04-21T14:41:36.715Z,22.50
2023-04-21T14:44:03.797Z,21.35
2023-04-21T14:46:30.305Z,25.15
2023-04-21T14:48:57.506Z,25.33
2023-04-21T14:51:23.963Z,24.52
2023-04-21T14:53:51.139Z,23.98
2023-04-21T14:56:18.658Z,23.75
2023-04-21T14:58:45.135Z,23.45
2023-04-21T15:01:11.593Z,23.15
2023-04-21T15:03:38.245Z,23.83
2023-04-21T15:06:04.889Z,22.98
2023-04-21T15:08:31.251Z,21.45
2023-04-21T15:10:57.986Z,22.80
2023-04-21T15:13:24.474Z,22.27
2023-04-21T15:15:52.109Z,21.05
2023-04-21T15:18:18.739Z,23.23
2023-04-21T15:20:45.933Z,22.73
2023-04-21T15:23:12.915Z,21.63
2023-04-21T15:25:40.296Z,21.95
2023-04-21T15:28:07.405Z,22.40
2023-04-21T15:30:33.915Z,23.45
2023-04-21T15:33:01.232Z,23.40
2023-04-21T15:35:27.646Z,22.85
2023-04-21T15:37:54.138Z,22.65
2023-04-21T15:40:20.532Z,24.15
2023-04-21T15:42:47.037Z,23.38
2023-04-21T15:45:13.444Z,21.95
2023-04-21T15:47:39.926Z,23.23
2023-04-21T15:50:07.030Z,25.55
2023-04-21T15:52:35.860Z,25.45
2023-04-21T15:55:02.293Z,23.98
2023-04-21T15:57:29.634Z,32.60
2023-04-21T15:59:56.006Z,24.88
2023-04-21T16:02:22.712Z,22.48
2023-04-21T16:04:49.324Z,22.38
2023-04-21T16:07:15.822Z,23.55
2023-04-21T16:09:42.354Z,28.55
2023-04-21T16:12:10.284Z,29.55
2023-04-21T16:14:53.625Z,26.85
2023-04-21T16:17:24.168Z,30.70
2023-04-21T16:19:52.677Z,30.20
2023-04-21T16:22:20.297Z,26.05
2023-04-21T16:24:46.818Z,28.33
2023-04-21T16:27:13.287Z,26.75
2023-04-21T16:29:39.718Z,22.50
2023-04-21T16:32:06.786Z,22.13
2023-04-21T16:34:33.385Z,21.65
2023-04-21T16:37:00.156Z,21.42
2023-04-21T16:39:27.615Z,20.45
2023-04-21T16:41:53.987Z,19.92
2023-04-21T16:44:20.475Z,22.02
2023-04-21T16:46:46.934Z,23.30
2023-04-21T16:49:13.603Z,23.05
2023-04-21T16:51:44.519Z,20.52
2023-04-21T16:54:11.619Z,20.80
2023-04-21T16:56:38.445Z,19.90
2023-04-21T16:59:05.360Z,20.50
2023-04-21T17:01:31.957Z,20.85
2023-04-21T17:03:58.838Z,17.65
2023-04-21T17:06:25.448Z,16.77
2023-04-21T17:08:59.208Z,18.08
2023-04-21T17:11:27.296Z,16.50
2023-04-21T17:13:53.854Z,18.25
2023-04-21T17:16:20.376Z,20.15
2023-04-21T17:18:46.815Z,16.95
2023-04-21T17:21:13.194Z,25.05
2023-04-21T17:23:39.617Z,16.88
2023-04-21T17:26:06.374Z,24.42
2023-04-21T17:28:32.885Z,17.92
2023-04-21T17:31:13.754Z,17.83
2023-04-21T17:33:42.387Z,11.25
2023-04-21T17:36:08.840Z,11.60
2023-04-21T17:38:35.408Z,10.93
2023-04-21T17:41:02.170Z,7.72
2023-04-21T17:43:28.685Z,9.35
2023-04-21T17:45:55.164Z,9.73
2023-04-21T17:48:21.715Z,8.02
2023-04-21T17:50:48.136Z,8.55
2023-04-21T17:53:14.553Z,14.90
2023-04-21T17:55:41.020Z,13.15
2023-04-21T17:58:09.395Z,8.88
2023-04-21T18:00:38.140Z,9.25
2023-04-21T18:03:04.928Z,8.75
2023-04-21T18:05:32.106Z,8.52
2023-04-21T18:07:58.712Z,8.27
2023-04-21T18:10:26.436Z,11.23
2023-04-21T18:12:54.658Z,15.13
2023-04-21T18:15:21.073Z,10.27
2023-04-21T18:17:47.614Z,10.27
2023-04-21T18:20:14.925Z,13.57
2023-04-21T18:22:43.594Z,23.55
2023-04-21T18:25:11.689Z,25.85
2023-04-21T18:27:41.526Z,21.55
2023-04-21T18:30:09.105Z,18.98
2023-04-21T18:32:36.366Z,29.88
2023-04-21T18:35:03.569Z,23.17
2023-04-21T18:37:30.343Z,25.17
2023-04-21T18:39:57.415Z,30.90
2023-04-21T18:42:27.721Z,37.50
2023-04-21T18:44:57.082Z,56.17
2023-04-21T18:47:24.566Z,50.50
2023-04-21T18:49:51.461Z,43.08
2023-04-21T18:52:17.862Z,22.85
2023-04-21T18:54:44.229Z,28.38
2023-04-21T18:57:10.836Z,22.27
2023-04-21T18:59:37.237Z,28.10
2023-04-21T19:02:05.943Z,18.58
2023-04-21T19:04:32.465Z,20.65
2023-04-21T19:06:58.839Z,21.50
2023-04-21T19:09:27.113Z,20.95
2023-04-21T19:11:53.497Z,18.77
2023-04-21T19:14:19.898Z,17.42
2023-04-21T19:16:47.384Z,20.77
2023-04-21T19:19:13.776Z,20.60
2023-04-21T19:21:40.357Z,24.67
2023-04-21T19:24:06.818Z,27.73
2023-04-21T19:26:33.184Z,23.33
2023-04-21T19:28:59.583Z,22.08
2023-04-21T19:31:26.400Z,25.58
2023-04-21T19:33:52.788Z,23.55
2023-04-21T19:36:19.147Z,28.25
2023-04-21T19:38:45.579Z,32.22
2023-04-21T19:41:11.934Z,21.45
2023-04-21T19:43:38.284Z,23.00
2023-04-21T19:46:04.708Z,26.38
2023-04-21T19:48:31.345Z,31.65
2023-04-21T19:50:57.801Z,30.45
2023-04-21T19:53:24.220Z,27.98
2023-04-21T19:55:52.569Z,27.58
2023-04-21T19:58:31.951Z,32.75
2023-04-21T20:01:05.038Z,30.70
2023-04-21T20:03:31.653Z,36.55
2023-04-21T20:05:58.397Z,37.53
2023-04-21T20:08:24.765Z,31.17
2023-04-21T20:10:51.107Z,37.25
2023-04-21T20:13:17.473Z,72.75
2023-04-21T20:15:44.012Z,45.08
2023-04-21T20:18:10.776Z,41.95
2023-04-21T20:20:37.291Z,40.35
2023-04-21T20:23:03.842Z,34.85
2023-04-21T20:25:30.836Z,39.13
2023-04-21T20:27:57.473Z,29.30
2023-04-21T20:30:23.873Z,31.70
2023-04-21T20:32:50.430Z,34.90
2023-04-21T20:35:17.112Z,34.03
2023-04-21T20:37:44.353Z,16.50
2023-04-21T20:40:11.768Z,17.55
2023-04-21T20:42:38.761Z,13.35
2023-04-21T20:45:06.399Z,12.55
2023-04-21T20:47:33.922Z,8.15
2023-04-21T20:50:00.468Z,9.90
2023-04-21T20:52:26.940Z,16.60
2023-04-21T20:54:53.322Z,10.18
2023-04-21T20:57:19.779Z,7.65
2023-04-21T20:59:46.187Z,8.98
2023-04-21T21:02:12.690Z,7.68
2023-04-21T21:04:39.317Z,9.10
2023-04-21T21:07:06.276Z,12.82
2023-04-21T21:09:32.759Z,34.22
2023-04-21T21:11:59.272Z,38.25
2023-04-21T21:14:25.875Z,13.50
2023-04-21T21:16:54.510Z,30.88
2023-04-21T21:19:21.791Z,39.20
2023-04-21T21:21:48.147Z,34.22
2023-04-21T21:24:14.511Z,28.02
2023-04-21T21:26:42.715Z,15.35
2023-04-21T21:29:09.341Z,12.68
2023-04-21T21:31:35.793Z,12.95
2023-04-21T21:34:03.837Z,14.10
2023-04-21T21:36:31.691Z,13.30
2023-04-21T21:38:58.115Z,13.43
2023-04-21T21:41:24.573Z,11.63
2023-04-21T21:43:51.035Z,12.43
2023-04-21T21:46:18.574Z,14.05
2023-04-21T21:48:45.190Z,16.95
2023-04-21T21:51:11.957Z,11.57
2023-04-21T21:53:38.391Z,10.05
2023-04-21T21:56:05.059Z,14.63
2023-04-21T21:58:31.604Z,14.60
2023-04-21T22:00:58.085Z,17.45
2023-04-21T22:03:24.755Z,14.27
2023-04-21T22:05:52.146Z,12.45
2023-04-21T22:08:18.540Z,13.25
2023-04-21T22:10:45.133Z,13.07
2023-04-21T22:13:11.994Z,12.88
2023-04-21T22:15:38.776Z,19.33
2023-04-21T22:18:05.489Z,13.20
2023-04-21T22:20:32.085Z,13.75
2023-04-21T22:22:59.125Z,16.75
2023-04-21T22:25:27.089Z,18.45
2023-04-21T22:27:56.980Z,17.60
2023-04-21T22:30:23.457Z,21.45
2023-04-21T22:32:49.995Z,18.02
2023-04-21T22:35:16.761Z,17.30
2023-04-21T22:37:43.166Z,19.63
2023-04-21T22:40:10.346Z,18.40
2023-04-21T22:42:37.025Z,15.43
2023-04-21T22:45:05.240Z,16.98
2023-04-21T22:47:33.328Z,15.05
2023-04-21T22:49:59.779Z,15.82
2023-04-21T22:52:26.850Z,14.38
2023-04-21T22:54:53.569Z,15.57
2023-04-21T22:57:21.371Z,15.13
2023-04-21T22:59:47.839Z,14.65
2023-04-21T23:02:14.333Z,12.38
2023-04-21T23:04:40.827Z,15.20
2023-04-21T23:07:07.669Z,17.60
2023-04-21T23:09:34.088Z,17.83
2023-04-21T23:12:01.358Z,18.98
2023-04-21T23:14:27.806Z,20.00
2023-04-21T23:16:54.425Z,19.27
2023-04-21T23:19:20.905Z,17.05
2023-04-21T23:21:47.332Z,18.40
2023-04-21T23:24:13.965Z,21.15
2023-04-21T23:26:41.068Z,17.00
2023-04-21T23:29:07.521Z,16.20
2023-04-21T23:31:34.217Z,15.77
2023-04-21T23:34:00.746Z,14.80
2023-04-21T23:36:27.146Z,23.48
2023-04-21T23:38:53.872Z,23.63
2023-04-21T23:41:20.727Z,54.60
2023-04-21T23:43:47.137Z,24.23
2023-04-21T23:46:14.954Z,21.80
2023-04-21T23:48:41.476Z,20.83
2023-04-21T23:51:07.984Z,23.60
2023-04-21T23:53:34.439Z,24.15
2023-04-21T23:56:00.913Z,23.58
2023-04-21T23:58:28.031Z,26.40
